GLO1782 SBBR-SBEG
Flight info
| Callsign | GLO1782 |
|---|---|
| Flight time | 2h 34m |
| Altitude | 38000 |
| Route | UGUGA UM409 ESMAR DCT IRUMO |
| Aircraft | B737/M-SDE2E3FGHIRWXY/LB1 |
Departure
| Time | 2026-04-14 13:38 |
|---|---|
| Airport | Presidente Juscelino Kubitschek International Airport (SBBR) |
Arrival
| Time | 2026-04-14 16:13 |
|---|---|
| Airport | Eduardo Gomes International Airport (SBEG) |
| Time | Latitude | Longitude | Altitude | Speed | Heading |
|---|---|---|---|---|---|
| 2026-04-14 13:05 | -15.86847 | -47.91787 | 3471 ft | 0 kts | 356° |
| 2026-04-14 13:26 | -15.86869 | -47.91787 | 3471 ft | 4 kts | 7° |
| 2026-04-14 13:26 | -15.86895 | -47.91794 | 3471 ft | 4 kts | 34° |
| 2026-04-14 13:27 | -15.86909 | -47.91812 | 3469 ft | 2 kts | 85° |
| 2026-04-14 13:27 | -15.86909 | -47.91818 | 3469 ft | 0 kts | 86° |
| 2026-04-14 13:30 | -15.86907 | -47.91796 | 3470 ft | 3 kts | 83° |
| 2026-04-14 13:30 | -15.86905 | -47.91721 | 3471 ft | 12 kts | 107° |
| 2026-04-14 13:30 | -15.86978 | -47.91690 | 3471 ft | 13 kts | 177° |
| 2026-04-14 13:31 | -15.87069 | -47.91685 | 3471 ft | 14 kts | 176° |
| 2026-04-14 13:31 | -15.87165 | -47.91678 | 3471 ft | 14 kts | 175° |
| 2026-04-14 13:31 | -15.87274 | -47.91671 | 3471 ft | 17 kts | 175° |
| 2026-04-14 13:31 | -15.87405 | -47.91662 | 3470 ft | 20 kts | 175° |
| 2026-04-14 13:32 | -15.87551 | -47.91651 | 3466 ft | 21 kts | 173° |
| 2026-04-14 13:32 | -15.87687 | -47.91643 | 3462 ft | 17 kts | 176° |
| 2026-04-14 13:32 | -15.87739 | -47.91719 | 3462 ft | 13 kts | 267° |
| 2026-04-14 13:32 | -15.87747 | -47.91799 | 3464 ft | 10 kts | 262° |
| 2026-04-14 13:33 | -15.87749 | -47.91856 | 3465 ft | 7 kts | 267° |
| 2026-04-14 13:33 | -15.87753 | -47.91939 | 3467 ft | 16 kts | 267° |
| 2026-04-14 13:33 | -15.87762 | -47.92079 | 3469 ft | 22 kts | 266° |
| 2026-04-14 13:33 | -15.87772 | -47.92251 | 3472 ft | 26 kts | 266° |
| 2026-04-14 13:34 | -15.87798 | -47.92624 | 3475 ft | 20 kts | 266° |
| 2026-04-14 13:34 | -15.87806 | -47.92754 | 3476 ft | 17 kts | 266° |
| 2026-04-14 13:34 | -15.87813 | -47.92869 | 3480 ft | 15 kts | 266° |
| 2026-04-14 13:35 | -15.87820 | -47.92977 | 3479 ft | 16 kts | 266° |
| 2026-04-14 13:35 | -15.87828 | -47.93093 | 3483 ft | 16 kts | 266° |
| 2026-04-14 13:35 | -15.87835 | -47.93213 | 3487 ft | 18 kts | 265° |
| 2026-04-14 13:35 | -15.87843 | -47.93338 | 3495 ft | 17 kts | 266° |
| 2026-04-14 13:36 | -15.87853 | -47.93460 | 3503 ft | 18 kts | 264° |
| 2026-04-14 13:36 | -15.87858 | -47.93591 | 3500 ft | 18 kts | 266° |
| 2026-04-14 13:36 | -15.87866 | -47.93720 | 3505 ft | 18 kts | 266° |
| 2026-04-14 13:36 | -15.87872 | -47.93845 | 3508 ft | 17 kts | 267° |
| 2026-04-14 13:37 | -15.87888 | -47.93962 | 3509 ft | 16 kts | 240° |
| 2026-04-14 13:37 | -15.87986 | -47.93994 | 3513 ft | 17 kts | 176° |
| 2026-04-14 13:37 | -15.88062 | -47.93909 | 3511 ft | 21 kts | 86° |
| 2026-04-14 13:37 | -15.88044 | -47.93611 | 3503 ft | 74 kts | 85° |
| 2026-04-14 13:38 | -15.87993 | -47.92842 | 3479 ft | 138 kts | 85° |
| 2026-04-14 13:38 | -15.87942 | -47.91702 | 3718 ft | 169 kts | 89° |
| 2026-04-14 13:38 | -15.87908 | -47.90879 | 4214 ft | 174 kts | 86° |
| 2026-04-14 13:38 | -15.87840 | -47.89690 | 5296 ft | 156 kts | 85° |
| 2026-04-14 13:39 | -15.87756 | -47.88552 | 5995 ft | 166 kts | 84° |
| 2026-04-14 13:39 | -15.87659 | -47.87238 | 6312 ft | 195 kts | 85° |
| 2026-04-14 13:39 | -15.87554 | -47.85710 | 6482 ft | 230 kts | 85° |
| 2026-04-14 13:39 | -15.87439 | -47.83934 | 6723 ft | 262 kts | 86° |
| 2026-04-14 13:40 | -15.87318 | -47.82005 | 7452 ft | 269 kts | 85° |
| 2026-04-14 13:40 | -15.87199 | -47.80062 | 8287 ft | 271 kts | 86° |
| 2026-04-14 13:40 | -15.86895 | -47.78109 | 9062 ft | 278 kts | 68° |
| 2026-04-14 13:40 | -15.85848 | -47.76414 | 9690 ft | 281 kts | 45° |
| 2026-04-14 13:41 | -15.84253 | -47.75267 | 10022 ft | 289 kts | 25° |
| 2026-04-14 13:41 | -15.82292 | -47.74781 | 10038 ft | 292 kts | 359° |
| 2026-04-14 13:41 | -15.80309 | -47.75233 | 10055 ft | 295 kts | 339° |
| 2026-04-14 13:41 | -15.78416 | -47.76069 | 10050 ft | 297 kts | 336° |
| 2026-04-14 13:42 | -15.76522 | -47.76954 | 10047 ft | 298 kts | 336° |
| 2026-04-14 13:42 | -15.74623 | -47.77831 | 10045 ft | 299 kts | 338° |
| 2026-04-14 13:42 | -15.72721 | -47.78695 | 10040 ft | 299 kts | 337° |
| 2026-04-14 13:42 | -15.70816 | -47.79553 | 10049 ft | 296 kts | 337° |
| 2026-04-14 13:43 | -15.69075 | -47.80648 | 10027 ft | 293 kts | 315° |
| 2026-04-14 13:43 | -15.67968 | -47.82406 | 10136 ft | 295 kts | 291° |
| 2026-04-14 13:43 | -15.67579 | -47.84568 | 10298 ft | 319 kts | 274° |
| 2026-04-14 13:43 | -15.67534 | -47.86965 | 10538 ft | 343 kts | 270° |
| 2026-04-14 13:44 | -15.67548 | -47.89472 | 11136 ft | 352 kts | 270° |
| 2026-04-14 13:44 | -15.67572 | -47.92033 | 11876 ft | 356 kts | 270° |
| 2026-04-14 13:44 | -15.67589 | -47.94606 | 12730 ft | 357 kts | 270° |
| 2026-04-14 13:44 | -15.67598 | -47.97162 | 13496 ft | 361 kts | 270° |
| 2026-04-14 13:45 | -15.67599 | -47.99781 | 14191 ft | 365 kts | 270° |
| 2026-04-14 13:45 | -15.67596 | -48.02436 | 14857 ft | 368 kts | 270° |
| 2026-04-14 13:45 | -15.67590 | -48.05099 | 15521 ft | 372 kts | 270° |
| 2026-04-14 13:45 | -15.67583 | -48.07794 | 16183 ft | 375 kts | 270° |
| 2026-04-14 13:46 | -15.67575 | -48.10513 | 16799 ft | 380 kts | 270° |
| 2026-04-14 13:46 | -15.67567 | -48.13268 | 17430 ft | 384 kts | 270° |
| 2026-04-14 13:46 | -15.67558 | -48.16044 | 18057 ft | 387 kts | 270° |
| 2026-04-14 13:46 | -15.67549 | -48.18848 | 18633 ft | 390 kts | 270° |
| 2026-04-14 13:47 | -15.67540 | -48.21669 | 19211 ft | 391 kts | 270° |
| 2026-04-14 13:47 | -15.67532 | -48.24505 | 19778 ft | 393 kts | 270° |
| 2026-04-14 13:47 | -15.67524 | -48.27348 | 20354 ft | 395 kts | 270° |
| 2026-04-14 13:47 | -15.67516 | -48.30222 | 20819 ft | 400 kts | 270° |
| 2026-04-14 13:48 | -15.67508 | -48.33092 | 21532 ft | 397 kts | 270° |
| 2026-04-14 13:48 | -15.67498 | -48.35913 | 22216 ft | 395 kts | 270° |
| 2026-04-14 13:48 | -15.67095 | -48.38786 | 22553 ft | 405 kts | 289° |
| 2026-04-14 13:48 | -15.65801 | -48.41358 | 22993 ft | 411 kts | 304° |
| 2026-04-14 13:49 | -15.63799 | -48.43509 | 23353 ft | 420 kts | 321° |
| 2026-04-14 13:49 | -15.61406 | -48.45268 | 23795 ft | 423 kts | 324° |
| 2026-04-14 13:49 | -15.58948 | -48.46967 | 24174 ft | 426 kts | 325° |
| 2026-04-14 13:49 | -15.56462 | -48.48649 | 24525 ft | 429 kts | 325° |
| 2026-04-14 13:50 | -15.53948 | -48.50353 | 24846 ft | 433 kts | 325° |
| 2026-04-14 13:50 | -15.51419 | -48.52081 | 25154 ft | 437 kts | 324° |
| 2026-04-14 13:50 | -15.48879 | -48.53833 | 25496 ft | 440 kts | 324° |
| 2026-04-14 13:50 | -15.46327 | -48.55605 | 25836 ft | 443 kts | 324° |
| 2026-04-14 13:51 | -15.43763 | -48.57393 | 26157 ft | 446 kts | 324° |
| 2026-04-14 13:51 | -15.41180 | -48.59198 | 26478 ft | 449 kts | 324° |
| 2026-04-14 13:51 | -15.38580 | -48.61017 | 26789 ft | 452 kts | 324° |
| 2026-04-14 13:51 | -15.35965 | -48.62846 | 27109 ft | 455 kts | 324° |
| 2026-04-14 13:52 | -15.33371 | -48.64660 | 27434 ft | 457 kts | 324° |
| 2026-04-14 13:52 | -15.30726 | -48.66509 | 27718 ft | 461 kts | 324° |
| 2026-04-14 13:52 | -15.28056 | -48.68375 | 27962 ft | 465 kts | 324° |
| 2026-04-14 13:52 | -15.25366 | -48.70253 | 28266 ft | 467 kts | 324° |
| 2026-04-14 13:53 | -15.22662 | -48.72141 | 28558 ft | 470 kts | 324° |
| 2026-04-14 13:53 | -15.19948 | -48.74034 | 28833 ft | 472 kts | 324° |
| 2026-04-14 13:53 | -15.17212 | -48.75942 | 29097 ft | 475 kts | 324° |
| 2026-04-14 13:53 | -15.14459 | -48.77862 | 29344 ft | 478 kts | 324° |
| 2026-04-14 13:54 | -15.11705 | -48.79781 | 29765 ft | 477 kts | 324° |
| 2026-04-14 13:54 | -15.08948 | -48.81702 | 30040 ft | 479 kts | 324° |
| 2026-04-14 13:54 | -15.06177 | -48.83632 | 30209 ft | 483 kts | 324° |
| 2026-04-14 13:54 | -15.03383 | -48.85579 | 30410 ft | 485 kts | 324° |
| 2026-04-14 13:55 | -15.00577 | -48.87532 | 30636 ft | 487 kts | 324° |
| 2026-04-14 13:55 | -14.97767 | -48.89488 | 30867 ft | 488 kts | 324° |
| 2026-04-14 13:55 | -14.94943 | -48.91452 | 31107 ft | 490 kts | 324° |
| 2026-04-14 13:55 | -14.92148 | -48.93396 | 31412 ft | 489 kts | 324° |
| 2026-04-14 13:56 | -14.89328 | -48.95357 | 31787 ft | 487 kts | 324° |
| 2026-04-14 13:56 | -14.86516 | -48.97310 | 32153 ft | 486 kts | 324° |
| 2026-04-14 13:56 | -14.83710 | -48.99259 | 32467 ft | 486 kts | 324° |
| 2026-04-14 13:56 | -14.80897 | -49.01213 | 32769 ft | 487 kts | 324° |
| 2026-04-14 13:57 | -14.78087 | -49.03164 | 33106 ft | 487 kts | 323° |
| 2026-04-14 13:57 | -14.75279 | -49.05113 | 33458 ft | 486 kts | 323° |
| 2026-04-14 13:57 | -14.72472 | -49.07061 | 33838 ft | 486 kts | 323° |
| 2026-04-14 13:57 | -14.69665 | -49.09008 | 34136 ft | 486 kts | 323° |
| 2026-04-14 13:58 | -14.66858 | -49.10956 | 34453 ft | 485 kts | 324° |
| 2026-04-14 13:58 | -14.64073 | -49.12886 | 34934 ft | 479 kts | 324° |
| 2026-04-14 13:58 | -14.61323 | -49.14791 | 35364 ft | 475 kts | 324° |
| 2026-04-14 13:58 | -14.58578 | -49.16692 | 35642 ft | 475 kts | 324° |
| 2026-04-14 13:59 | -14.55832 | -49.18595 | 35874 ft | 475 kts | 324° |
| 2026-04-14 13:59 | -14.53085 | -49.20498 | 36128 ft | 475 kts | 324° |
| 2026-04-14 13:59 | -14.50351 | -49.22391 | 36437 ft | 473 kts | 324° |
| 2026-04-14 13:59 | -14.47618 | -49.24282 | 36768 ft | 471 kts | 324° |
| 2026-04-14 14:00 | -14.44900 | -49.26163 | 37036 ft | 470 kts | 324° |
| 2026-04-14 14:00 | -14.42220 | -49.28017 | 37275 ft | 469 kts | 324° |
| 2026-04-14 14:00 | -14.39508 | -49.29892 | 37549 ft | 468 kts | 324° |
| 2026-04-14 14:00 | -14.36810 | -49.31757 | 37812 ft | 467 kts | 324° |
| 2026-04-14 14:01 | -14.34106 | -49.33627 | 37974 ft | 469 kts | 324° |
| 2026-04-14 14:01 | -14.28660 | -49.37390 | 37972 ft | 472 kts | 324° |
| 2026-04-14 14:02 | -14.23230 | -49.41139 | 37956 ft | 467 kts | 324° |
| 2026-04-14 14:02 | -14.17851 | -49.44851 | 37970 ft | 463 kts | 324° |
| 2026-04-14 14:03 | -14.12504 | -49.48540 | 37973 ft | 461 kts | 324° |
| 2026-04-14 14:03 | -14.07181 | -49.52213 | 37950 ft | 460 kts | 325° |
| 2026-04-14 14:04 | -14.01873 | -49.55932 | 37970 ft | 465 kts | 321° |
| 2026-04-14 14:04 | -13.96889 | -49.60249 | 37957 ft | 469 kts | 316° |
| 2026-04-14 14:05 | -13.92040 | -49.64755 | 37970 ft | 470 kts | 317° |
| 2026-04-14 14:05 | -13.87156 | -49.69216 | 37947 ft | 469 kts | 317° |
| 2026-04-14 14:06 | -13.82269 | -49.73595 | 37954 ft | 468 kts | 317° |
| 2026-04-14 14:06 | -13.77347 | -49.77978 | 37951 ft | 467 kts | 318° |
| 2026-04-14 14:07 | -13.72433 | -49.82350 | 37948 ft | 466 kts | 317° |
| 2026-04-14 14:07 | -13.67546 | -49.86700 | 37939 ft | 465 kts | 317° |
| 2026-04-14 14:08 | -13.62661 | -49.91048 | 37943 ft | 464 kts | 317° |
| 2026-04-14 14:08 | -13.57780 | -49.95389 | 37937 ft | 463 kts | 317° |
| 2026-04-14 14:09 | -13.52908 | -49.99720 | 37947 ft | 463 kts | 317° |
| 2026-04-14 14:09 | -13.48027 | -50.04056 | 37963 ft | 464 kts | 317° |
| 2026-04-14 14:10 | -13.43137 | -50.08399 | 37954 ft | 465 kts | 317° |
| 2026-04-14 14:10 | -13.38273 | -50.12716 | 37958 ft | 465 kts | 317° |
| 2026-04-14 14:11 | -13.33374 | -50.17062 | 37954 ft | 466 kts | 317° |
| 2026-04-14 14:11 | -13.28458 | -50.21422 | 37935 ft | 467 kts | 317° |
| 2026-04-14 14:12 | -13.23537 | -50.25786 | 37946 ft | 467 kts | 317° |
| 2026-04-14 14:12 | -13.18607 | -50.30152 | 37932 ft | 468 kts | 317° |
| 2026-04-14 14:13 | -13.13700 | -50.34490 | 37933 ft | 468 kts | 317° |
| 2026-04-14 14:13 | -13.08759 | -50.38856 | 37942 ft | 468 kts | 317° |
| 2026-04-14 14:14 | -13.03814 | -50.43229 | 37927 ft | 468 kts | 317° |
| 2026-04-14 14:14 | -12.98917 | -50.47558 | 37948 ft | 468 kts | 317° |
| 2026-04-14 14:15 | -12.93988 | -50.51914 | 37943 ft | 468 kts | 317° |
| 2026-04-14 14:15 | -12.89057 | -50.56270 | 37941 ft | 468 kts | 317° |
| 2026-04-14 14:16 | -12.84119 | -50.60629 | 37941 ft | 467 kts | 317° |
| 2026-04-14 14:16 | -12.79190 | -50.64977 | 37935 ft | 467 kts | 317° |
| 2026-04-14 14:17 | -12.71807 | -50.71486 | 37932 ft | 467 kts | 317° |
| 2026-04-14 14:17 | -12.66918 | -50.75794 | 37942 ft | 466 kts | 317° |
| 2026-04-14 14:18 | -12.62002 | -50.80123 | 37935 ft | 466 kts | 317° |
| 2026-04-14 14:18 | -12.57085 | -50.84451 | 37945 ft | 466 kts | 317° |
| 2026-04-14 14:19 | -12.52170 | -50.88775 | 37943 ft | 465 kts | 317° |
| 2026-04-14 14:19 | -12.47256 | -50.93096 | 37946 ft | 465 kts | 317° |
| 2026-04-14 14:20 | -12.42342 | -50.97415 | 37941 ft | 465 kts | 317° |
| 2026-04-14 14:20 | -12.37429 | -51.01732 | 37939 ft | 465 kts | 317° |
| 2026-04-14 14:21 | -12.32521 | -51.06042 | 37939 ft | 465 kts | 317° |
| 2026-04-14 14:21 | -12.27636 | -51.10331 | 37952 ft | 465 kts | 317° |
| 2026-04-14 14:22 | -12.22732 | -51.14636 | 37939 ft | 464 kts | 317° |
| 2026-04-14 14:22 | -12.17829 | -51.18933 | 37945 ft | 464 kts | 318° |
| 2026-04-14 14:23 | -12.12930 | -51.23220 | 37935 ft | 463 kts | 318° |
| 2026-04-14 14:23 | -12.08034 | -51.27506 | 37933 ft | 462 kts | 318° |
| 2026-04-14 14:24 | -12.03156 | -51.31779 | 37947 ft | 462 kts | 317° |
| 2026-04-14 14:24 | -11.98277 | -51.36050 | 37947 ft | 462 kts | 318° |
| 2026-04-14 14:25 | -11.93401 | -51.40318 | 37946 ft | 462 kts | 318° |
| 2026-04-14 14:25 | -11.88518 | -51.44589 | 37944 ft | 462 kts | 318° |
| 2026-04-14 14:26 | -11.83665 | -51.48833 | 37946 ft | 463 kts | 318° |
| 2026-04-14 14:26 | -11.78763 | -51.53116 | 37954 ft | 463 kts | 317° |
| 2026-04-14 14:27 | -11.74692 | -51.56672 | 37951 ft | 463 kts | 317° |
| 2026-04-14 14:27 | -11.69793 | -51.60950 | 37942 ft | 463 kts | 318° |
| 2026-04-14 14:28 | -11.64894 | -51.65225 | 37950 ft | 463 kts | 318° |
| 2026-04-14 14:28 | -11.59993 | -51.69500 | 37944 ft | 463 kts | 318° |
| 2026-04-14 14:29 | -11.55120 | -51.73749 | 37942 ft | 464 kts | 318° |
| 2026-04-14 14:29 | -11.50218 | -51.78021 | 37941 ft | 463 kts | 317° |
| 2026-04-14 14:30 | -11.45323 | -51.82286 | 37944 ft | 463 kts | 318° |
| 2026-04-14 14:30 | -11.40431 | -51.86546 | 37940 ft | 462 kts | 317° |
| 2026-04-14 14:31 | -11.35539 | -51.90806 | 37936 ft | 462 kts | 318° |
| 2026-04-14 14:31 | -11.30659 | -51.95055 | 37936 ft | 462 kts | 318° |
| 2026-04-14 14:32 | -11.25762 | -51.99289 | 37947 ft | 461 kts | 318° |
| 2026-04-14 14:32 | -11.20824 | -52.03466 | 37934 ft | 461 kts | 319° |
| 2026-04-14 14:33 | -11.15883 | -52.07635 | 37931 ft | 461 kts | 318° |
| 2026-04-14 14:33 | -11.10985 | -52.11777 | 37936 ft | 460 kts | 318° |
| 2026-04-14 14:34 | -11.03593 | -52.18039 | 37933 ft | 460 kts | 318° |
| 2026-04-14 14:35 | -10.98677 | -52.22202 | 37935 ft | 460 kts | 318° |
| 2026-04-14 14:35 | -10.93753 | -52.26371 | 37934 ft | 460 kts | 318° |
| 2026-04-14 14:36 | -10.88860 | -52.30510 | 37929 ft | 460 kts | 318° |
| 2026-04-14 14:36 | -10.83942 | -52.34669 | 37936 ft | 460 kts | 318° |
| 2026-04-14 14:37 | -10.79018 | -52.38830 | 37938 ft | 460 kts | 318° |
| 2026-04-14 14:37 | -10.74096 | -52.42989 | 37941 ft | 460 kts | 318° |
| 2026-04-14 14:38 | -10.69177 | -52.47143 | 37937 ft | 460 kts | 318° |
| 2026-04-14 14:38 | -10.64254 | -52.51299 | 37935 ft | 460 kts | 318° |
| 2026-04-14 14:39 | -10.59333 | -52.55452 | 37924 ft | 460 kts | 318° |
| 2026-04-14 14:39 | -10.54410 | -52.59603 | 37933 ft | 459 kts | 318° |
| 2026-04-14 14:40 | -10.49492 | -52.63750 | 37926 ft | 459 kts | 318° |
| 2026-04-14 14:40 | -10.44606 | -52.67868 | 37934 ft | 459 kts | 318° |
| 2026-04-14 14:41 | -10.39689 | -52.72009 | 37933 ft | 458 kts | 318° |
| 2026-04-14 14:41 | -10.34783 | -52.76140 | 37929 ft | 458 kts | 318° |
| 2026-04-14 14:42 | -10.29875 | -52.80272 | 37930 ft | 458 kts | 318° |
| 2026-04-14 14:42 | -10.24969 | -52.84399 | 37942 ft | 458 kts | 318° |
| 2026-04-14 14:43 | -10.20056 | -52.88531 | 37931 ft | 458 kts | 318° |
| 2026-04-14 14:43 | -10.15145 | -52.92660 | 37932 ft | 458 kts | 318° |
| 2026-04-14 14:44 | -10.10265 | -52.96762 | 37932 ft | 458 kts | 318° |
| 2026-04-14 14:44 | -10.05354 | -53.00888 | 37937 ft | 458 kts | 318° |
| 2026-04-14 14:45 | -10.00436 | -53.05018 | 37931 ft | 458 kts | 318° |
| 2026-04-14 14:45 | -9.95524 | -53.09145 | 37936 ft | 459 kts | 318° |
| 2026-04-14 14:46 | -9.90605 | -53.13276 | 37939 ft | 459 kts | 317° |
| 2026-04-14 14:46 | -9.85884 | -53.17566 | 37939 ft | 458 kts | 315° |
| 2026-04-14 14:47 | -9.81220 | -53.21978 | 37937 ft | 459 kts | 315° |
| 2026-04-14 14:47 | -9.76541 | -53.26379 | 37935 ft | 459 kts | 315° |
| 2026-04-14 14:48 | -9.71838 | -53.30766 | 37940 ft | 459 kts | 315° |
| 2026-04-14 14:48 | -9.67117 | -53.35161 | 37936 ft | 459 kts | 315° |
| 2026-04-14 14:49 | -9.62442 | -53.39513 | 37935 ft | 459 kts | 315° |
| 2026-04-14 14:49 | -9.57740 | -53.43892 | 37934 ft | 459 kts | 315° |
| 2026-04-14 14:50 | -9.53036 | -53.48267 | 37933 ft | 459 kts | 315° |
| 2026-04-14 14:50 | -9.48319 | -53.52633 | 37938 ft | 459 kts | 315° |
| 2026-04-14 14:51 | -9.43607 | -53.56992 | 37937 ft | 459 kts | 315° |
| 2026-04-14 14:51 | -9.38898 | -53.61352 | 37938 ft | 458 kts | 315° |
| 2026-04-14 14:52 | -9.34194 | -53.65708 | 37936 ft | 458 kts | 315° |
| 2026-04-14 14:52 | -9.29491 | -53.70063 | 37938 ft | 458 kts | 315° |
| 2026-04-14 14:53 | -9.24818 | -53.74387 | 37939 ft | 458 kts | 315° |
| 2026-04-14 14:53 | -9.20108 | -53.78745 | 37934 ft | 458 kts | 315° |
| 2026-04-14 14:54 | -9.15404 | -53.83095 | 37930 ft | 458 kts | 315° |
| 2026-04-14 14:54 | -9.10686 | -53.87457 | 37940 ft | 458 kts | 315° |
| 2026-04-14 14:55 | -9.05983 | -53.91803 | 37939 ft | 458 kts | 315° |
| 2026-04-14 14:55 | -9.01266 | -53.96160 | 37937 ft | 459 kts | 315° |
| 2026-04-14 14:56 | -8.94191 | -54.02693 | 37938 ft | 459 kts | 315° |
| 2026-04-14 14:56 | -8.89481 | -54.07040 | 37937 ft | 459 kts | 315° |
| 2026-04-14 14:57 | -8.84795 | -54.11363 | 37933 ft | 459 kts | 315° |
| 2026-04-14 14:57 | -8.80084 | -54.15708 | 37939 ft | 458 kts | 315° |
| 2026-04-14 14:58 | -8.75372 | -54.20051 | 37937 ft | 458 kts | 315° |
| 2026-04-14 14:58 | -8.70667 | -54.24387 | 37941 ft | 457 kts | 315° |
| 2026-04-14 14:59 | -8.65968 | -54.28716 | 37937 ft | 457 kts | 315° |
| 2026-04-14 14:59 | -8.61264 | -54.33049 | 37934 ft | 457 kts | 315° |
| 2026-04-14 15:00 | -8.56571 | -54.37369 | 37939 ft | 456 kts | 315° |
| 2026-04-14 15:00 | -8.51877 | -54.41689 | 37943 ft | 456 kts | 315° |
| 2026-04-14 15:01 | -8.47216 | -54.45977 | 37941 ft | 456 kts | 315° |
| 2026-04-14 15:01 | -8.42521 | -54.50295 | 37943 ft | 456 kts | 315° |
| 2026-04-14 15:02 | -8.37822 | -54.54615 | 37941 ft | 456 kts | 315° |
| 2026-04-14 15:02 | -8.33129 | -54.58928 | 37941 ft | 456 kts | 315° |
| 2026-04-14 15:03 | -8.28432 | -54.63243 | 37948 ft | 456 kts | 315° |
| 2026-04-14 15:03 | -8.23768 | -54.67527 | 37950 ft | 456 kts | 315° |
| 2026-04-14 15:04 | -8.19070 | -54.71840 | 37946 ft | 456 kts | 315° |
| 2026-04-14 15:04 | -8.14374 | -54.76150 | 37947 ft | 456 kts | 315° |
| 2026-04-14 15:05 | -8.09671 | -54.80465 | 37948 ft | 457 kts | 315° |
| 2026-04-14 15:05 | -8.04966 | -54.84781 | 37947 ft | 457 kts | 315° |
| 2026-04-14 15:06 | -8.00259 | -54.89096 | 37950 ft | 457 kts | 315° |
| 2026-04-14 15:06 | -7.95549 | -54.93414 | 37947 ft | 458 kts | 315° |
| 2026-04-14 15:07 | -7.90836 | -54.97733 | 37951 ft | 458 kts | 315° |
| 2026-04-14 15:07 | -7.86115 | -55.02058 | 37950 ft | 458 kts | 315° |
| 2026-04-14 15:08 | -7.81397 | -55.06378 | 37952 ft | 458 kts | 315° |
| 2026-04-14 15:08 | -7.76678 | -55.10699 | 37947 ft | 458 kts | 316° |
| 2026-04-14 15:09 | -7.71987 | -55.14992 | 37947 ft | 458 kts | 316° |
| 2026-04-14 15:09 | -7.67273 | -55.19305 | 37952 ft | 458 kts | 316° |
| 2026-04-14 15:10 | -7.62553 | -55.23622 | 37947 ft | 458 kts | 316° |
| 2026-04-14 15:10 | -7.57841 | -55.27932 | 37955 ft | 457 kts | 316° |
| 2026-04-14 15:11 | -7.53127 | -55.32242 | 37953 ft | 457 kts | 316° |
| 2026-04-14 15:11 | -7.48407 | -55.36558 | 37953 ft | 457 kts | 316° |
| 2026-04-14 15:12 | -7.43697 | -55.40864 | 37949 ft | 457 kts | 316° |
| 2026-04-14 15:12 | -7.38991 | -55.45165 | 37952 ft | 457 kts | 316° |
| 2026-04-14 15:13 | -7.34297 | -55.49479 | 37951 ft | 457 kts | 316° |
| 2026-04-14 15:13 | -7.29629 | -55.53772 | 37951 ft | 457 kts | 316° |
| 2026-04-14 15:14 | -7.24884 | -55.58030 | 37953 ft | 457 kts | 317° |
| 2026-04-14 15:14 | -7.20029 | -55.62175 | 37950 ft | 458 kts | 318° |
| 2026-04-14 15:15 | -7.15979 | -55.65621 | 37950 ft | 458 kts | 318° |
| 2026-04-14 15:15 | -7.10339 | -55.70456 | 37952 ft | 458 kts | 318° |
| 2026-04-14 15:16 | -7.05494 | -55.74627 | 37947 ft | 458 kts | 318° |
| 2026-04-14 15:16 | -7.01461 | -55.78101 | 37950 ft | 458 kts | 318° |
| 2026-04-14 15:17 | -6.97120 | -55.82729 | 37961 ft | 454 kts | 304° |
| 2026-04-14 15:17 | -6.93550 | -55.87974 | 37951 ft | 454 kts | 302° |
| 2026-04-14 15:18 | -6.90005 | -55.93250 | 37950 ft | 455 kts | 303° |
| 2026-04-14 15:18 | -6.86425 | -55.98505 | 37944 ft | 455 kts | 303° |
| 2026-04-14 15:19 | -6.82846 | -56.03709 | 37949 ft | 454 kts | 303° |
| 2026-04-14 15:19 | -6.79244 | -56.08932 | 37948 ft | 454 kts | 303° |
| 2026-04-14 15:20 | -6.75645 | -56.14149 | 37950 ft | 454 kts | 303° |
| 2026-04-14 15:20 | -6.72044 | -56.19367 | 37952 ft | 453 kts | 303° |
| 2026-04-14 15:21 | -6.68448 | -56.24579 | 37950 ft | 453 kts | 303° |
| 2026-04-14 15:21 | -6.64851 | -56.29791 | 37953 ft | 453 kts | 303° |
| 2026-04-14 15:22 | -6.61255 | -56.34998 | 37952 ft | 453 kts | 303° |
| 2026-04-14 15:22 | -6.57660 | -56.40204 | 37947 ft | 453 kts | 303° |
| 2026-04-14 15:23 | -6.54058 | -56.45418 | 37950 ft | 453 kts | 303° |
| 2026-04-14 15:23 | -6.50457 | -56.50629 | 37958 ft | 454 kts | 303° |
| 2026-04-14 15:24 | -6.46850 | -56.55849 | 37951 ft | 455 kts | 303° |
| 2026-04-14 15:24 | -6.43235 | -56.61076 | 37945 ft | 455 kts | 303° |
| 2026-04-14 15:25 | -6.39651 | -56.66258 | 37949 ft | 455 kts | 304° |
| 2026-04-14 15:25 | -6.36040 | -56.71477 | 37955 ft | 454 kts | 304° |
| 2026-04-14 15:26 | -6.32439 | -56.76681 | 37947 ft | 454 kts | 304° |
| 2026-04-14 15:26 | -6.28831 | -56.81892 | 37950 ft | 453 kts | 304° |
| 2026-04-14 15:27 | -6.25234 | -56.87089 | 37943 ft | 452 kts | 304° |
| 2026-04-14 15:27 | -6.21645 | -56.92270 | 37942 ft | 452 kts | 304° |
| 2026-04-14 15:28 | -6.18084 | -56.97409 | 37947 ft | 451 kts | 304° |
| 2026-04-14 15:28 | -6.14495 | -57.02588 | 37939 ft | 450 kts | 304° |
| 2026-04-14 15:29 | -6.10914 | -57.07753 | 37943 ft | 450 kts | 304° |
| 2026-04-14 15:29 | -6.07334 | -57.12917 | 37940 ft | 450 kts | 304° |
| 2026-04-14 15:30 | -6.03744 | -57.18090 | 37946 ft | 452 kts | 305° |
| 2026-04-14 15:30 | -6.00134 | -57.23295 | 37948 ft | 455 kts | 305° |
| 2026-04-14 15:31 | -5.96497 | -57.28537 | 37949 ft | 459 kts | 305° |
| 2026-04-14 15:31 | -5.92835 | -57.33814 | 37944 ft | 462 kts | 305° |
| 2026-04-14 15:32 | -5.89152 | -57.39118 | 37936 ft | 464 kts | 305° |
| 2026-04-14 15:32 | -5.85482 | -57.44403 | 37942 ft | 465 kts | 305° |
| 2026-04-14 15:33 | -5.81778 | -57.49736 | 37936 ft | 466 kts | 305° |
| 2026-04-14 15:33 | -5.78075 | -57.55065 | 37936 ft | 465 kts | 304° |
| 2026-04-14 15:34 | -5.74376 | -57.60387 | 37931 ft | 464 kts | 304° |
| 2026-04-14 15:34 | -5.70680 | -57.65703 | 37935 ft | 463 kts | 304° |
| 2026-04-14 15:35 | -5.66991 | -57.71009 | 37938 ft | 462 kts | 304° |
| 2026-04-14 15:35 | -5.63341 | -57.76256 | 37941 ft | 461 kts | 304° |
| 2026-04-14 15:36 | -5.59672 | -57.81528 | 37941 ft | 460 kts | 304° |
| 2026-04-14 15:36 | -5.56016 | -57.86783 | 37936 ft | 459 kts | 304° |
| 2026-04-14 15:37 | -5.52360 | -57.92034 | 37935 ft | 458 kts | 304° |
| 2026-04-14 15:37 | -5.48710 | -57.97277 | 37929 ft | 457 kts | 304° |
| 2026-04-14 15:38 | -5.45068 | -58.02506 | 37938 ft | 457 kts | 304° |
| 2026-04-14 15:38 | -5.41428 | -58.07731 | 37935 ft | 456 kts | 304° |
| 2026-04-14 15:39 | -5.37814 | -58.12917 | 37935 ft | 456 kts | 304° |
| 2026-04-14 15:39 | -5.34180 | -58.18132 | 37937 ft | 456 kts | 304° |
| 2026-04-14 15:40 | -5.30535 | -58.23360 | 37935 ft | 457 kts | 304° |
| 2026-04-14 15:40 | -5.26888 | -58.28591 | 37932 ft | 458 kts | 304° |
| 2026-04-14 15:41 | -5.23236 | -58.33826 | 37933 ft | 459 kts | 304° |
| 2026-04-14 15:41 | -5.19576 | -58.39072 | 37935 ft | 459 kts | 304° |
| 2026-04-14 15:42 | -5.15931 | -58.44296 | 37931 ft | 460 kts | 305° |
| 2026-04-14 15:42 | -5.12261 | -58.49554 | 37935 ft | 461 kts | 306° |
| 2026-04-14 15:43 | -5.08580 | -58.54827 | 37933 ft | 461 kts | 306° |
| 2026-04-14 15:43 | -5.04891 | -58.60109 | 37932 ft | 461 kts | 306° |
| 2026-04-14 15:44 | -5.01206 | -58.65387 | 37925 ft | 461 kts | 306° |
| 2026-04-14 15:44 | -4.97527 | -58.70653 | 37932 ft | 460 kts | 305° |
| 2026-04-14 15:45 | -4.93873 | -58.75881 | 37924 ft | 460 kts | 306° |
| 2026-04-14 15:45 | -4.90198 | -58.81141 | 37927 ft | 460 kts | 306° |
| 2026-04-14 15:46 | -4.86531 | -58.86386 | 37938 ft | 459 kts | 306° |
| 2026-04-14 15:46 | -4.82869 | -58.91623 | 37923 ft | 458 kts | 306° |
| 2026-04-14 15:47 | -4.79206 | -58.96861 | 37921 ft | 458 kts | 306° |
| 2026-04-14 15:47 | -4.75552 | -59.02084 | 37926 ft | 457 kts | 306° |
| 2026-04-14 15:48 | -4.71898 | -59.07306 | 37919 ft | 457 kts | 305° |
| 2026-04-14 15:48 | -4.68252 | -59.12518 | 37926 ft | 457 kts | 305° |
| 2026-04-14 15:49 | -4.64622 | -59.17703 | 37930 ft | 458 kts | 305° |
| 2026-04-14 15:49 | -4.60959 | -59.22935 | 37916 ft | 458 kts | 306° |
| 2026-04-14 15:50 | -4.57292 | -59.28174 | 37926 ft | 458 kts | 306° |
| 2026-04-14 15:50 | -4.53625 | -59.33409 | 37840 ft | 460 kts | 306° |
| 2026-04-14 15:51 | -4.51774 | -59.36050 | 37226 ft | 465 kts | 306° |
| 2026-04-14 15:51 | -4.49911 | -59.38710 | 36609 ft | 463 kts | 306° |
| 2026-04-14 15:51 | -4.48085 | -59.41316 | 35960 ft | 462 kts | 306° |
| 2026-04-14 15:51 | -4.46235 | -59.43957 | 35236 ft | 464 kts | 306° |
| 2026-04-14 15:52 | -4.44375 | -59.46612 | 34457 ft | 467 kts | 306° |
| 2026-04-14 15:52 | -4.42506 | -59.49279 | 33716 ft | 469 kts | 306° |
| 2026-04-14 15:52 | -4.40640 | -59.51942 | 33092 ft | 465 kts | 306° |
| 2026-04-14 15:52 | -4.38786 | -59.54588 | 32526 ft | 462 kts | 306° |
| 2026-04-14 15:53 | -4.36946 | -59.57213 | 31969 ft | 458 kts | 306° |
| 2026-04-14 15:53 | -4.35116 | -59.59823 | 31419 ft | 455 kts | 306° |
| 2026-04-14 15:53 | -4.33300 | -59.62413 | 30858 ft | 453 kts | 305° |
| 2026-04-14 15:53 | -4.31494 | -59.64990 | 30310 ft | 451 kts | 306° |
| 2026-04-14 15:54 | -4.27936 | -59.70064 | 29136 ft | 445 kts | 306° |
| 2026-04-14 15:54 | -4.26164 | -59.72590 | 28556 ft | 441 kts | 306° |
| 2026-04-14 15:54 | -4.24409 | -59.75093 | 27995 ft | 437 kts | 306° |
| 2026-04-14 15:55 | -4.22666 | -59.77578 | 27430 ft | 433 kts | 306° |
| 2026-04-14 15:55 | -4.20942 | -59.80037 | 26889 ft | 429 kts | 306° |
| 2026-04-14 15:55 | -4.19228 | -59.82481 | 26331 ft | 426 kts | 306° |
| 2026-04-14 15:55 | -4.17531 | -59.84901 | 25771 ft | 423 kts | 306° |
| 2026-04-14 15:56 | -4.15843 | -59.87308 | 25207 ft | 420 kts | 306° |
| 2026-04-14 15:56 | -4.14169 | -59.89695 | 24662 ft | 418 kts | 306° |
| 2026-04-14 15:56 | -4.12527 | -59.92033 | 24121 ft | 416 kts | 306° |
| 2026-04-14 15:56 | -4.10753 | -59.94311 | 23555 ft | 413 kts | 317° |
| 2026-04-14 15:57 | -4.08438 | -59.95974 | 22806 ft | 411 kts | 335° |
| 2026-04-14 15:57 | -4.05744 | -59.96917 | 22170 ft | 407 kts | 345° |
| 2026-04-14 15:57 | -4.03034 | -59.97708 | 21562 ft | 404 kts | 345° |
| 2026-04-14 15:57 | -4.00338 | -59.98479 | 21023 ft | 400 kts | 345° |
| 2026-04-14 15:58 | -3.97681 | -59.99244 | 20479 ft | 396 kts | 345° |
| 2026-04-14 15:58 | -3.95043 | -60.00014 | 19947 ft | 392 kts | 345° |
| 2026-04-14 15:58 | -3.92440 | -60.00781 | 19402 ft | 389 kts | 345° |
| 2026-04-14 15:58 | -3.89855 | -60.01549 | 18865 ft | 386 kts | 345° |
| 2026-04-14 15:59 | -3.87283 | -60.02317 | 18331 ft | 384 kts | 345° |
| 2026-04-14 15:59 | -3.84738 | -60.03078 | 17741 ft | 381 kts | 345° |
| 2026-04-14 15:59 | -3.82208 | -60.03835 | 17189 ft | 377 kts | 345° |
| 2026-04-14 15:59 | -3.79704 | -60.04585 | 16657 ft | 373 kts | 345° |
| 2026-04-14 16:00 | -3.77232 | -60.05325 | 16141 ft | 369 kts | 345° |
| 2026-04-14 16:00 | -3.74784 | -60.06058 | 15623 ft | 365 kts | 345° |
| 2026-04-14 16:00 | -3.72354 | -60.06785 | 15113 ft | 362 kts | 345° |
| 2026-04-14 16:00 | -3.69983 | -60.07494 | 14601 ft | 359 kts | 344° |
| 2026-04-14 16:01 | -3.67598 | -60.08208 | 14127 ft | 355 kts | 344° |
| 2026-04-14 16:01 | -3.65235 | -60.08916 | 13556 ft | 354 kts | 345° |
| 2026-04-14 16:01 | -3.62886 | -60.09619 | 13015 ft | 350 kts | 345° |
| 2026-04-14 16:01 | -3.60562 | -60.10314 | 12488 ft | 347 kts | 344° |
| 2026-04-14 16:02 | -3.58257 | -60.11003 | 11974 ft | 343 kts | 345° |
| 2026-04-14 16:02 | -3.55980 | -60.11684 | 11481 ft | 340 kts | 345° |
| 2026-04-14 16:02 | -3.53725 | -60.12357 | 10996 ft | 337 kts | 345° |
| 2026-04-14 16:02 | -3.51488 | -60.13025 | 10510 ft | 334 kts | 345° |
| 2026-04-14 16:03 | -3.49282 | -60.13685 | 10251 ft | 324 kts | 345° |
| 2026-04-14 16:03 | -3.47870 | -60.14107 | 10118 ft | 317 kts | 345° |
| 2026-04-14 16:03 | -3.45802 | -60.14726 | 9976 ft | 304 kts | 345° |
| 2026-04-14 16:03 | -3.43814 | -60.15320 | 9856 ft | 291 kts | 345° |
| 2026-04-14 16:04 | -3.41217 | -60.16096 | 9250 ft | 292 kts | 345° |
| 2026-04-14 16:04 | -3.39297 | -60.16669 | 8822 ft | 292 kts | 345° |
| 2026-04-14 16:04 | -3.37362 | -60.17248 | 8453 ft | 289 kts | 345° |
| 2026-04-14 16:04 | -3.35461 | -60.17817 | 8070 ft | 281 kts | 345° |
| 2026-04-14 16:05 | -3.34228 | -60.18187 | 7852 ft | 278 kts | 345° |
| 2026-04-14 16:05 | -3.32350 | -60.18749 | 7493 ft | 278 kts | 345° |
| 2026-04-14 16:05 | -3.29893 | -60.19484 | 7026 ft | 278 kts | 345° |
| 2026-04-14 16:05 | -3.28046 | -60.20035 | 6671 ft | 276 kts | 345° |
| 2026-04-14 16:06 | -3.26811 | -60.20405 | 6441 ft | 274 kts | 345° |
| 2026-04-14 16:06 | -3.25011 | -60.20942 | 6083 ft | 272 kts | 345° |
| 2026-04-14 16:06 | -3.23179 | -60.21373 | 5717 ft | 269 kts | 351° |
| 2026-04-14 16:06 | -3.21331 | -60.21667 | 5367 ft | 267 kts | 353° |
| 2026-04-14 16:07 | -3.19502 | -60.21948 | 5029 ft | 265 kts | 353° |
| 2026-04-14 16:07 | -3.17691 | -60.22237 | 4699 ft | 263 kts | 352° |
| 2026-04-14 16:07 | -3.15889 | -60.22530 | 4355 ft | 261 kts | 352° |
| 2026-04-14 16:07 | -3.14104 | -60.22823 | 4024 ft | 259 kts | 353° |
| 2026-04-14 16:08 | -3.12343 | -60.22956 | 3834 ft | 249 kts | 1° |
| 2026-04-14 16:08 | -3.10626 | -60.22926 | 3654 ft | 243 kts | 3° |
| 2026-04-14 16:08 | -3.08951 | -60.22889 | 3474 ft | 237 kts | 2° |
| 2026-04-14 16:08 | -3.07313 | -60.22870 | 3332 ft | 233 kts | 1° |
| 2026-04-14 16:09 | -3.05746 | -60.22802 | 3147 ft | 223 kts | 14° |
| 2026-04-14 16:09 | -3.04521 | -60.22008 | 2969 ft | 208 kts | 57° |
| 2026-04-14 16:09 | -3.04161 | -60.20661 | 2761 ft | 200 kts | 85° |
| 2026-04-14 16:09 | -3.04051 | -60.19258 | 2524 ft | 202 kts | 86° |
| 2026-04-14 16:10 | -3.03915 | -60.17851 | 2279 ft | 201 kts | 84° |
| 2026-04-14 16:10 | -3.03841 | -60.16487 | 2105 ft | 191 kts | 89° |
| 2026-04-14 16:10 | -3.03836 | -60.15207 | 1970 ft | 183 kts | 89° |
| 2026-04-14 16:10 | -3.03842 | -60.13951 | 1768 ft | 179 kts | 89° |
| 2026-04-14 16:11 | -3.03845 | -60.12714 | 1537 ft | 177 kts | 90° |
| 2026-04-14 16:11 | -3.03844 | -60.11518 | 1337 ft | 167 kts | 90° |
| 2026-04-14 16:11 | -3.03847 | -60.10393 | 1097 ft | 158 kts | 91° |
| 2026-04-14 16:11 | -3.03850 | -60.09344 | 919 ft | 141 kts | 90° |
| 2026-04-14 16:12 | -3.03851 | -60.08381 | 739 ft | 138 kts | 91° |
| 2026-04-14 16:12 | -3.03852 | -60.07406 | 558 ft | 144 kts | 92° |
| 2026-04-14 16:12 | -3.03854 | -60.06425 | 355 ft | 137 kts | 93° |
| 2026-04-14 16:12 | -3.03859 | -60.05520 | 267 ft | 117 kts | 91° |
| 2026-04-14 16:13 | -3.03860 | -60.04823 | 268 ft | 83 kts | 90° |
| 2026-04-14 16:13 | -3.03860 | -60.04362 | 269 ft | 49 kts | 89° |
| 2026-04-14 16:13 | -3.03859 | -60.04121 | 268 ft | 28 kts | 91° |
| 2026-04-14 16:13 | -3.03861 | -60.03932 | 267 ft | 26 kts | 91° |
| 2026-04-14 16:14 | -3.03829 | -60.03783 | 267 ft | 14 kts | 39° |
| 2026-04-14 16:14 | -3.03753 | -60.03772 | 268 ft | 10 kts | 338° |
| 2026-04-14 16:14 | -3.03750 | -60.03774 | 268 ft | 0 kts | 338° |
| 2026-04-14 16:15 | -3.03737 | -60.03779 | 268 ft | 7 kts | 337° |
| 2026-04-14 16:16 | -3.03683 | -60.03846 | 268 ft | 17 kts | 285° |
| 2026-04-14 16:16 | -3.03650 | -60.03967 | 267 ft | 18 kts | 285° |
| 2026-04-14 16:16 | -3.03619 | -60.04089 | 267 ft | 18 kts | 286° |
| 2026-04-14 16:16 | -3.03583 | -60.04204 | 267 ft | 17 kts | 292° |
| 2026-04-14 16:17 | -3.03522 | -60.04300 | 267 ft | 16 kts | 314° |
| 2026-04-14 16:17 | -3.03433 | -60.04361 | 267 ft | 15 kts | 336° |
| 2026-04-14 16:17 | -3.03338 | -60.04400 | 267 ft | 15 kts | 305° |
| 2026-04-14 16:17 | -3.03347 | -60.04496 | 267 ft | 12 kts | 259° |
| 2026-04-14 16:18 | -3.03339 | -60.04533 | 267 ft | 1 kts | 352° |
| 2026-04-14 16:18 | -3.03333 | -60.04534 | 267 ft | 1 kts | 354° |
| 2026-04-14 16:18 | -3.03320 | -60.04535 | 267 ft | 3 kts | 354° |
| 2026-04-14 16:18 | -3.03296 | -60.04537 | 267 ft | 4 kts | 355° |
| 2026-04-14 16:19 | -3.03269 | -60.04539 | 267 ft | 3 kts | 354° |
| 2026-04-14 16:19 | -3.03266 | -60.04540 | 267 ft | 0 kts | 354° |